DAL2340 KMCO-KFLL
Flight info
| Callsign | DAL2340 |
|---|---|
| Flight time | 0h 41m |
| Altitude | 25000 |
| Route | DDANY3 JIPOD CUUDA3 |
| Aircraft | A321/M-SDE3FGHIRWY/LB1 |
Departure
| Time | 2026-05-04 00:18 |
|---|---|
| Airport | Orlando International Airport (KMCO) |
Arrival
| Time | 2026-05-04 00:59 |
|---|---|
| Airport | Fort Lauderdale Hollywood International Airport (KFLL) |
| Time | Latitude | Longitude | Altitude | Speed | Heading |
|---|---|---|---|---|---|
| 2026-05-03 23:47 | 28.42799 | -81.30011 | 96 ft | 0 kts | 309° |
| 2026-05-04 00:04 | 28.42790 | -81.30000 | 94 ft | 3 kts | 309° |
| 2026-05-04 00:04 | 28.42773 | -81.29976 | 94 ft | 4 kts | 309° |
| 2026-05-04 00:05 | 28.42756 | -81.29952 | 93 ft | 4 kts | 309° |
| 2026-05-04 00:05 | 28.42739 | -81.29928 | 94 ft | 4 kts | 309° |
| 2026-05-04 00:05 | 28.42725 | -81.29909 | 93 ft | 3 kts | 294° |
| 2026-05-04 00:05 | 28.42723 | -81.29888 | 92 ft | 3 kts | 216° |
| 2026-05-04 00:06 | 28.42745 | -81.29882 | 94 ft | 4 kts | 179° |
| 2026-05-04 00:06 | 28.42755 | -81.29882 | 95 ft | 0 kts | 179° |
| 2026-05-04 00:08 | 28.42744 | -81.29882 | 94 ft | 5 kts | 179° |
| 2026-05-04 00:09 | 28.42677 | -81.29882 | 95 ft | 14 kts | 180° |
| 2026-05-04 00:09 | 28.42602 | -81.29858 | 95 ft | 9 kts | 120° |
| 2026-05-04 00:09 | 28.42547 | -81.29793 | 97 ft | 6 kts | 165° |
| 2026-05-04 00:09 | 28.42546 | -81.29793 | 97 ft | 0 kts | 166° |
| 2026-05-04 00:11 | 28.42534 | -81.29792 | 95 ft | 0 kts | 178° |
| 2026-05-04 00:11 | 28.42528 | -81.29792 | 98 ft | 1 kts | 180° |
| 2026-05-04 00:11 | 28.42522 | -81.29792 | 97 ft | 0 kts | 181° |
| 2026-05-04 00:12 | 28.42500 | -81.29793 | 96 ft | 9 kts | 181° |
| 2026-05-04 00:12 | 28.42393 | -81.29794 | 96 ft | 21 kts | 179° |
| 2026-05-04 00:12 | 28.42233 | -81.29792 | 96 ft | 23 kts | 179° |
| 2026-05-04 00:12 | 28.42062 | -81.29790 | 95 ft | 32 kts | 179° |
| 2026-05-04 00:13 | 28.41684 | -81.29788 | 96 ft | 64 kts | 181° |
| 2026-05-04 00:13 | 28.41394 | -81.29785 | 96 ft | 30 kts | 179° |
| 2026-05-04 00:13 | 28.41224 | -81.29784 | 95 ft | 11 kts | 179° |
| 2026-05-04 00:13 | 28.41150 | -81.29783 | 96 ft | 10 kts | 179° |
| 2026-05-04 00:14 | 28.41065 | -81.29781 | 94 ft | 16 kts | 180° |
| 2026-05-04 00:14 | 28.40917 | -81.29780 | 95 ft | 26 kts | 179° |
| 2026-05-04 00:14 | 28.40819 | -81.29712 | 97 ft | 16 kts | 93° |
| 2026-05-04 00:14 | 28.40820 | -81.29658 | 97 ft | 8 kts | 87° |
| 2026-05-04 00:15 | 28.40826 | -81.29573 | 93 ft | 8 kts | 63° |
| 2026-05-04 00:15 | 28.40857 | -81.29559 | 93 ft | 8 kts | 3° |
| 2026-05-04 00:15 | 28.40873 | -81.29559 | 93 ft | 0 kts | 359° |
| 2026-05-04 00:17 | 28.40877 | -81.29559 | 95 ft | 4 kts | 359° |
| 2026-05-04 00:17 | 28.41156 | -81.29562 | 96 ft | 87 kts | 359° |
| 2026-05-04 00:17 | 28.42040 | -81.29571 | 110 ft | 161 kts | 1° |
| 2026-05-04 00:17 | 28.43261 | -81.29584 | 632 ft | 190 kts | 2° |
| 2026-05-04 00:18 | 28.44631 | -81.29511 | 1444 ft | 197 kts | 17° |
| 2026-05-04 00:18 | 28.45763 | -81.28739 | 2100 ft | 197 kts | 54° |
| 2026-05-04 00:18 | 28.46527 | -81.27340 | 2442 ft | 220 kts | 57° |
| 2026-05-04 00:18 | 28.47466 | -81.25849 | 2872 ft | 241 kts | 53° |
| 2026-05-04 00:19 | 28.48519 | -81.24314 | 3555 ft | 251 kts | 52° |
| 2026-05-04 00:19 | 28.49615 | -81.22740 | 4323 ft | 258 kts | 54° |
| 2026-05-04 00:19 | 28.50442 | -81.20916 | 5007 ft | 265 kts | 76° |
| 2026-05-04 00:19 | 28.50850 | -81.18847 | 5742 ft | 271 kts | 79° |
| 2026-05-04 00:20 | 28.51106 | -81.16702 | 6468 ft | 278 kts | 93° |
| 2026-05-04 00:20 | 28.50722 | -81.14530 | 7140 ft | 284 kts | 105° |
| 2026-05-04 00:20 | 28.50202 | -81.12322 | 7798 ft | 292 kts | 105° |
| 2026-05-04 00:20 | 28.49675 | -81.10069 | 8495 ft | 298 kts | 105° |
| 2026-05-04 00:21 | 28.49143 | -81.07765 | 9170 ft | 305 kts | 107° |
| 2026-05-04 00:21 | 28.48346 | -81.05514 | 9816 ft | 309 kts | 123° |
| 2026-05-04 00:21 | 28.47026 | -81.03585 | 10419 ft | 311 kts | 141° |
| 2026-05-04 00:21 | 28.45301 | -81.01956 | 10763 ft | 327 kts | 146° |
| 2026-05-04 00:22 | 28.43494 | -81.00328 | 10938 ft | 348 kts | 146° |
| 2026-05-04 00:22 | 28.41572 | -80.98592 | 11461 ft | 356 kts | 146° |
| 2026-05-04 00:22 | 28.39626 | -80.96825 | 12144 ft | 360 kts | 146° |
| 2026-05-04 00:22 | 28.37668 | -80.95042 | 12862 ft | 362 kts | 146° |
| 2026-05-04 00:23 | 28.35696 | -80.93243 | 13571 ft | 365 kts | 146° |
| 2026-05-04 00:23 | 28.33714 | -80.91437 | 14234 ft | 367 kts | 146° |
| 2026-05-04 00:23 | 28.31708 | -80.89612 | 14820 ft | 371 kts | 146° |
| 2026-05-04 00:23 | 28.29715 | -80.87707 | 15395 ft | 379 kts | 141° |
| 2026-05-04 00:24 | 28.27991 | -80.85394 | 15947 ft | 391 kts | 129° |
| 2026-05-04 00:24 | 28.26663 | -80.82655 | 16501 ft | 402 kts | 117° |
| 2026-05-04 00:24 | 28.25611 | -80.79688 | 17045 ft | 408 kts | 116° |
| 2026-05-04 00:24 | 28.24545 | -80.76684 | 17580 ft | 413 kts | 117° |
| 2026-05-04 00:25 | 28.23458 | -80.73650 | 18096 ft | 418 kts | 117° |
| 2026-05-04 00:25 | 28.22350 | -80.70579 | 18579 ft | 423 kts | 117° |
| 2026-05-04 00:25 | 28.21228 | -80.67482 | 19035 ft | 427 kts | 117° |
| 2026-05-04 00:25 | 28.20122 | -80.64345 | 19507 ft | 431 kts | 116° |
| 2026-05-04 00:26 | 28.19053 | -80.61155 | 19950 ft | 435 kts | 116° |
| 2026-05-04 00:26 | 28.18017 | -80.57967 | 20402 ft | 438 kts | 115° |
| 2026-05-04 00:26 | 28.16969 | -80.54708 | 20864 ft | 442 kts | 115° |
| 2026-05-04 00:26 | 28.15911 | -80.51432 | 21295 ft | 444 kts | 116° |
| 2026-05-04 00:27 | 28.14821 | -80.48091 | 21759 ft | 447 kts | 116° |
| 2026-05-04 00:27 | 28.13729 | -80.44782 | 22209 ft | 450 kts | 116° |
| 2026-05-04 00:27 | 28.12635 | -80.41498 | 22648 ft | 453 kts | 117° |
| 2026-05-04 00:27 | 28.11357 | -80.38255 | 23087 ft | 449 kts | 126° |
| 2026-05-04 00:28 | 28.09628 | -80.35351 | 23512 ft | 441 kts | 137° |
| 2026-05-04 00:28 | 28.07521 | -80.32871 | 23885 ft | 433 kts | 148° |
| 2026-05-04 00:28 | 28.05127 | -80.30866 | 24259 ft | 424 kts | 158° |
| 2026-05-04 00:28 | 28.02533 | -80.29366 | 24626 ft | 415 kts | 167° |
| 2026-05-04 00:29 | 27.99832 | -80.28276 | 24904 ft | 412 kts | 170° |
| 2026-05-04 00:29 | 27.97130 | -80.27221 | 24976 ft | 407 kts | 170° |
| 2026-05-04 00:29 | 27.94479 | -80.26177 | 24992 ft | 400 kts | 170° |
| 2026-05-04 00:29 | 27.91860 | -80.25149 | 24995 ft | 397 kts | 171° |
| 2026-05-04 00:30 | 27.89250 | -80.24130 | 25000 ft | 397 kts | 171° |
| 2026-05-04 00:30 | 27.86642 | -80.23115 | 25002 ft | 396 kts | 171° |
| 2026-05-04 00:30 | 27.84036 | -80.22102 | 24998 ft | 396 kts | 171° |
| 2026-05-04 00:30 | 27.81429 | -80.21091 | 25002 ft | 396 kts | 171° |
| 2026-05-04 00:31 | 27.78823 | -80.20080 | 24996 ft | 396 kts | 171° |
| 2026-05-04 00:31 | 27.76215 | -80.19067 | 24996 ft | 396 kts | 171° |
| 2026-05-04 00:31 | 27.73608 | -80.18056 | 25000 ft | 396 kts | 171° |
| 2026-05-04 00:31 | 27.70887 | -80.16997 | 24969 ft | 396 kts | 171° |
| 2026-05-04 00:32 | 27.68394 | -80.16028 | 24955 ft | 396 kts | 170° |
| 2026-05-04 00:32 | 27.65792 | -80.15018 | 24963 ft | 396 kts | 170° |
| 2026-05-04 00:32 | 27.63187 | -80.14005 | 24964 ft | 396 kts | 170° |
| 2026-05-04 00:32 | 27.60581 | -80.12985 | 24965 ft | 396 kts | 170° |
| 2026-05-04 00:33 | 27.57986 | -80.11934 | 24966 ft | 397 kts | 169° |
| 2026-05-04 00:33 | 27.52798 | -80.09775 | 24972 ft | 397 kts | 169° |
| 2026-05-04 00:33 | 27.50205 | -80.08691 | 24975 ft | 397 kts | 169° |
| 2026-05-04 00:34 | 27.47606 | -80.07607 | 24972 ft | 397 kts | 169° |
| 2026-05-04 00:34 | 27.45014 | -80.06530 | 24970 ft | 397 kts | 169° |
| 2026-05-04 00:34 | 27.42419 | -80.05454 | 24969 ft | 397 kts | 169° |
| 2026-05-04 00:34 | 27.39827 | -80.04387 | 24964 ft | 397 kts | 169° |
| 2026-05-04 00:35 | 27.37223 | -80.03363 | 24965 ft | 394 kts | 171° |
| 2026-05-04 00:35 | 27.34605 | -80.02481 | 24966 ft | 392 kts | 174° |
| 2026-05-04 00:35 | 27.31983 | -80.01692 | 24853 ft | 387 kts | 175° |
| 2026-05-04 00:35 | 27.29402 | -80.00947 | 24506 ft | 380 kts | 175° |
| 2026-05-04 00:36 | 27.26853 | -80.00215 | 24076 ft | 376 kts | 175° |
| 2026-05-04 00:36 | 27.24331 | -79.99463 | 23645 ft | 374 kts | 173° |
| 2026-05-04 00:36 | 27.21840 | -79.98631 | 23157 ft | 373 kts | 172° |
| 2026-05-04 00:36 | 27.19385 | -79.97741 | 22727 ft | 369 kts | 171° |
| 2026-05-04 00:37 | 27.16963 | -79.96830 | 22303 ft | 365 kts | 171° |
| 2026-05-04 00:37 | 27.14567 | -79.95930 | 21880 ft | 361 kts | 171° |
| 2026-05-04 00:37 | 27.12201 | -79.95048 | 21465 ft | 357 kts | 171° |
| 2026-05-04 00:37 | 27.09848 | -79.94186 | 21040 ft | 353 kts | 171° |
| 2026-05-04 00:38 | 27.07524 | -79.93347 | 20630 ft | 350 kts | 171° |
| 2026-05-04 00:38 | 27.05217 | -79.92496 | 20211 ft | 348 kts | 169° |
| 2026-05-04 00:38 | 27.02936 | -79.91602 | 19810 ft | 346 kts | 168° |
| 2026-05-04 00:38 | 27.00681 | -79.90684 | 19408 ft | 345 kts | 168° |
| 2026-05-04 00:39 | 26.98436 | -79.89755 | 19006 ft | 343 kts | 167° |
| 2026-05-04 00:39 | 26.96206 | -79.88832 | 18609 ft | 341 kts | 167° |
| 2026-05-04 00:39 | 26.93985 | -79.87924 | 18166 ft | 340 kts | 167° |
| 2026-05-04 00:39 | 26.91789 | -79.87035 | 17742 ft | 338 kts | 167° |
| 2026-05-04 00:40 | 26.90305 | -79.86432 | 17509 ft | 335 kts | 167° |
| 2026-05-04 00:40 | 26.87394 | -79.85260 | 17007 ft | 330 kts | 168° |
| 2026-05-04 00:40 | 26.85239 | -79.84398 | 16637 ft | 327 kts | 167° |
| 2026-05-04 00:40 | 26.83103 | -79.83542 | 16270 ft | 325 kts | 167° |
| 2026-05-04 00:41 | 26.80986 | -79.82689 | 15908 ft | 322 kts | 167° |
| 2026-05-04 00:41 | 26.78908 | -79.81854 | 15552 ft | 320 kts | 167° |
| 2026-05-04 00:41 | 26.76820 | -79.81021 | 15199 ft | 318 kts | 167° |
| 2026-05-04 00:41 | 26.74736 | -79.80188 | 14841 ft | 317 kts | 166° |
| 2026-05-04 00:42 | 26.72653 | -79.79410 | 14471 ft | 312 kts | 172° |
| 2026-05-04 00:42 | 26.70537 | -79.79063 | 14138 ft | 304 kts | 184° |
| 2026-05-04 00:42 | 26.68432 | -79.79186 | 13792 ft | 296 kts | 194° |
| 2026-05-04 00:42 | 26.66478 | -79.79725 | 13442 ft | 290 kts | 204° |
| 2026-05-04 00:43 | 26.64563 | -79.80510 | 13101 ft | 289 kts | 205° |
| 2026-05-04 00:43 | 26.62674 | -79.81279 | 12764 ft | 288 kts | 204° |
| 2026-05-04 00:43 | 26.60822 | -79.82029 | 12435 ft | 285 kts | 204° |
| 2026-05-04 00:43 | 26.58945 | -79.82792 | 12102 ft | 282 kts | 204° |
| 2026-05-04 00:44 | 26.57136 | -79.83531 | 11767 ft | 280 kts | 204° |
| 2026-05-04 00:44 | 26.55317 | -79.84275 | 11414 ft | 278 kts | 205° |
| 2026-05-04 00:44 | 26.53529 | -79.85064 | 11077 ft | 275 kts | 206° |
| 2026-05-04 00:44 | 26.51773 | -79.85891 | 10741 ft | 273 kts | 207° |
| 2026-05-04 00:45 | 26.50036 | -79.86724 | 10394 ft | 271 kts | 207° |
| 2026-05-04 00:45 | 26.48309 | -79.87552 | 10061 ft | 269 kts | 207° |
| 2026-05-04 00:45 | 26.46592 | -79.88374 | 9700 ft | 268 kts | 207° |
| 2026-05-04 00:45 | 26.44882 | -79.89181 | 9341 ft | 265 kts | 207° |
| 2026-05-04 00:46 | 26.43192 | -79.89976 | 9001 ft | 263 kts | 207° |
| 2026-05-04 00:46 | 26.41515 | -79.90760 | 8666 ft | 260 kts | 207° |
| 2026-05-04 00:46 | 26.39856 | -79.91539 | 8327 ft | 258 kts | 207° |
| 2026-05-04 00:46 | 26.38220 | -79.92330 | 7991 ft | 254 kts | 211° |
| 2026-05-04 00:47 | 26.36692 | -79.93307 | 7891 ft | 260 kts | 213° |
| 2026-05-04 00:47 | 26.35094 | -79.94342 | 7830 ft | 269 kts | 213° |
| 2026-05-04 00:47 | 26.33470 | -79.95390 | 7770 ft | 270 kts | 213° |
| 2026-05-04 00:47 | 26.31845 | -79.96434 | 7683 ft | 270 kts | 213° |
| 2026-05-04 00:48 | 26.30215 | -79.97475 | 7604 ft | 270 kts | 213° |
| 2026-05-04 00:48 | 26.28594 | -79.98516 | 7521 ft | 269 kts | 213° |
| 2026-05-04 00:48 | 26.26904 | -79.99613 | 7440 ft | 294 kts | 213° |
| 2026-05-04 00:48 | 26.25110 | -80.00775 | 7334 ft | 300 kts | 213° |
| 2026-05-04 00:49 | 26.23329 | -80.01915 | 7212 ft | 289 kts | 212° |
| 2026-05-04 00:49 | 26.21629 | -80.02994 | 7004 ft | 273 kts | 212° |
| 2026-05-04 00:49 | 26.20018 | -80.04022 | 6787 ft | 265 kts | 214° |
| 2026-05-04 00:49 | 26.18598 | -80.05319 | 6670 ft | 264 kts | 230° |
| 2026-05-04 00:50 | 26.17578 | -80.06997 | 6556 ft | 262 kts | 245° |
| 2026-05-04 00:50 | 26.16955 | -80.08895 | 6432 ft | 262 kts | 252° |
| 2026-05-04 00:50 | 26.16383 | -80.10821 | 6307 ft | 262 kts | 252° |
| 2026-05-04 00:50 | 26.15805 | -80.12742 | 6186 ft | 261 kts | 251° |
| 2026-05-04 00:51 | 26.15240 | -80.14660 | 6061 ft | 261 kts | 256° |
| 2026-05-04 00:51 | 26.15010 | -80.16654 | 5858 ft | 260 kts | 269° |
| 2026-05-04 00:51 | 26.15018 | -80.18661 | 5445 ft | 259 kts | 269° |
| 2026-05-04 00:51 | 26.15032 | -80.20662 | 5074 ft | 258 kts | 270° |
| 2026-05-04 00:52 | 26.15046 | -80.22634 | 5004 ft | 259 kts | 269° |
| 2026-05-04 00:52 | 26.15057 | -80.24642 | 5008 ft | 260 kts | 269° |
| 2026-05-04 00:52 | 26.15072 | -80.26660 | 5012 ft | 261 kts | 270° |
| 2026-05-04 00:52 | 26.15096 | -80.28677 | 5008 ft | 260 kts | 270° |
| 2026-05-04 00:53 | 26.15109 | -80.30690 | 5012 ft | 261 kts | 269° |
| 2026-05-04 00:53 | 26.15102 | -80.32709 | 5006 ft | 261 kts | 269° |
| 2026-05-04 00:53 | 26.15077 | -80.34725 | 5010 ft | 261 kts | 267° |
| 2026-05-04 00:53 | 26.14728 | -80.36685 | 4994 ft | 260 kts | 246° |
| 2026-05-04 00:54 | 26.13690 | -80.38314 | 4865 ft | 261 kts | 222° |
| 2026-05-04 00:54 | 26.12103 | -80.39292 | 4716 ft | 265 kts | 197° |
| 2026-05-04 00:54 | 26.10267 | -80.39440 | 4392 ft | 268 kts | 173° |
| 2026-05-04 00:54 | 26.08578 | -80.38612 | 4015 ft | 271 kts | 139° |
| 2026-05-04 00:55 | 26.07598 | -80.36852 | 3616 ft | 273 kts | 103° |
| 2026-05-04 00:55 | 26.07776 | -80.32728 | 2786 ft | 252 kts | 88° |
| 2026-05-04 00:55 | 26.07780 | -80.30872 | 2478 ft | 234 kts | 90° |
| 2026-05-04 00:56 | 26.07761 | -80.29131 | 2187 ft | 218 kts | 90° |
| 2026-05-04 00:56 | 26.07750 | -80.27520 | 1937 ft | 198 kts | 89° |
| 2026-05-04 00:56 | 26.07743 | -80.26055 | 1673 ft | 182 kts | 89° |
| 2026-05-04 00:56 | 26.07736 | -80.24702 | 1431 ft | 169 kts | 89° |
| 2026-05-04 00:57 | 26.07729 | -80.23425 | 1220 ft | 162 kts | 88° |
| 2026-05-04 00:57 | 26.07723 | -80.22192 | 1024 ft | 158 kts | 88° |
| 2026-05-04 00:57 | 26.07717 | -80.21013 | 826 ft | 148 kts | 88° |
| 2026-05-04 00:57 | 26.07711 | -80.19880 | 646 ft | 145 kts | 88° |
| 2026-05-04 00:58 | 26.07700 | -80.18763 | 447 ft | 144 kts | 89° |
| 2026-05-04 00:58 | 26.07698 | -80.17647 | 247 ft | 143 kts | 89° |
| 2026-05-04 00:58 | 26.07695 | -80.16544 | 65 ft | 143 kts | 88° |
| 2026-05-04 00:58 | 26.07694 | -80.15493 | 15 ft | 111 kts | 91° |
| 2026-05-04 00:59 | 26.07684 | -80.14956 | 17 ft | 42 kts | 90° |
| 2026-05-04 00:59 | 26.07670 | -80.14737 | 19 ft | 43 kts | 101° |
| 2026-05-04 00:59 | 26.07600 | -80.14542 | 18 ft | 20 kts | 127° |
| 2026-05-04 00:59 | 26.07508 | -80.14506 | 16 ft | 9 kts | 166° |
| 2026-05-04 01:00 | 26.07462 | -80.14494 | 16 ft | 5 kts | 169° |
| 2026-05-04 01:00 | 26.07440 | -80.14487 | 16 ft | 4 kts | 153° |
| 2026-05-04 01:00 | 26.07397 | -80.14441 | 17 ft | 7 kts | 139° |
| 2026-05-04 01:00 | 26.07376 | -80.14421 | 16 ft | 2 kts | 139° |